Time;durP1;ratioP1;P1;durP2;ratioP2;P2;SDS_P1;SDS_P2;PMS_P1;PMS_P2;Temp;Humidity;BMP_temperature;BMP_pressure;BME280_temperature;BME280_humidity;BME280_pressure;Samples;Min_cycle;Max_cycle;Signal;HPM_P1;HPM_P2
2023/04/06 00:02:02;;;;;;;12.10;5.45;;;;;;;;;;5055191;28;20483;-66
2023/04/06 00:04:28;;;;;;;11.70;5.30;;;;;;;;;;5054574;28;20054;-66
2023/04/06 00:06:54;;;;;;;8.73;5.00;;;;;;;;;;5056700;28;20119;-66
2023/04/06 00:09:20;;;;;;;10.35;5.15;;;;;;;;;;5035786;28;20056;-66
2023/04/06 00:11:46;;;;;;;12.68;5.28;;;;;;;;;;5055449;28;20056;-66
2023/04/06 00:14:13;;;;;;;9.75;5.68;;;;;;;;;;5058504;28;20052;-66
2023/04/06 00:16:40;;;;;;;9.50;5.53;;;;;;;;;;5036285;28;20507;-66
2023/04/06 00:19:06;;;;;;;9.07;5.22;;;;;;;;;;5056349;28;20163;-66
2023/04/06 00:21:32;;;;;;;10.55;5.25;;;;;;;;;;5055326;28;20487;-66
2023/04/06 00:23:58;;;;;;;9.93;5.30;;;;;;;;;;5058162;28;20110;-66
2023/04/06 00:26:24;;;;;;;10.05;5.45;;;;;;;;;;5057441;28;20114;-66
2023/04/06 00:28:52;;;;;;;10.27;5.47;;;;;;;;;;5053381;28;20044;-66
2023/04/06 00:31:18;;;;;;;8.98;5.38;;;;;;;;;;5036495;28;20044;-66
2023/04/06 00:33:44;;;;;;;9.32;5.28;;;;;;;;;;5037797;28;20052;-66
2023/04/06 00:36:10;;;;;;;10.23;5.18;;;;;;;;;;5056451;28;20088;-66
2023/04/06 00:38:36;;;;;;;8.55;5.25;;;;;;;;;;5056255;28;20427;-66
2023/04/06 00:41:04;;;;;;;7.85;5.30;;;;;;;;;;5052690;28;21577;-66
2023/04/06 00:43:30;;;;;;;8.07;5.07;;;;;;;;;;5054286;28;20044;-66
2023/04/06 00:45:56;;;;;;;11.35;5.07;;;;;;;;;;5057604;28;20108;-66
2023/04/06 00:48:22;;;;;;;9.07;5.60;;;;;;;;;;5056693;28;20053;-66
2023/04/06 00:50:49;;;;;;;9.55;6.55;;;;;;;;;;5052833;28;20033;-66
2023/04/06 00:53:15;;;;;;;9.15;5.63;;;;;;;;;;5037546;28;20048;-66
2023/04/06 00:55:41;;;;;;;13.05;5.75;;;;;;;;;;5055914;28;20539;-66
2023/04/06 00:58:07;;;;;;;8.13;5.15;;;;;;;;;;5053725;28;20472;-65
2023/04/06 01:00:33;;;;;;;9.50;5.70;;;;;;;;;;5036609;28;20102;-65
2023/04/06 01:03:00;;;;;;;9.48;5.43;;;;;;;;;;5058057;28;20038;-65
2023/04/06 01:05:26;;;;;;;9.88;5.15;;;;;;;;;;5052894;28;21839;-66
2023/04/06 01:07:53;;;;;;;8.93;5.07;;;;;;;;;;5053603;28;20045;-66
2023/04/06 01:10:25;;;;;;;9.13;5.30;;;;;;;;;;5050850;28;20127;-66
2023/04/06 01:12:52;;;;;;;9.38;4.90;;;;;;;;;;5053324;28;20687;-66
2023/04/06 01:15:18;;;;;;;11.25;5.40;;;;;;;;;;5036060;28;20052;-65
2023/04/06 01:17:44;;;;;;;9.43;5.35;;;;;;;;;;5053304;28;20048;-65
2023/04/06 01:20:11;;;;;;;7.70;5.07;;;;;;;;;;5054270;28;20052;-66
2023/04/06 01:22:37;;;;;;;8.70;5.10;;;;;;;;;;5055969;28;20040;-65
2023/04/06 01:25:03;;;;;;;10.43;5.20;;;;;;;;;;5056395;28;20048;-65
2023/04/06 01:27:29;;;;;;;9.27;5.18;;;;;;;;;;5053680;28;20057;-65
2023/04/06 01:29:56;;;;;;;10.73;5.68;;;;;;;;;;5055362;28;20064;-66
2023/04/06 01:32:22;;;;;;;7.47;5.03;;;;;;;;;;5053247;28;20130;-65
2023/04/06 01:34:48;;;;;;;10.68;5.60;;;;;;;;;;5054705;28;20036;-66
2023/04/06 01:37:14;;;;;;;8.07;4.93;;;;;;;;;;5054611;28;20056;-65
2023/04/06 01:39:41;;;;;;;9.68;5.78;;;;;;;;;;5051116;28;20127;-65
2023/04/06 01:42:07;;;;;;;9.48;5.28;;;;;;;;;;5054001;28;20048;-66
2023/04/06 01:44:34;;;;;;;13.05;5.95;;;;;;;;;;5038707;28;20048;-66
2023/04/06 01:47:00;;;;;;;8.63;5.20;;;;;;;;;;5037649;28;20372;-66
2023/04/06 01:49:26;;;;;;;8.55;4.80;;;;;;;;;;5035443;28;20101;-65
2023/04/06 01:51:54;;;;;;;10.60;5.05;;;;;;;;;;5056540;28;20072;-66
2023/04/06 01:54:20;;;;;;;11.15;4.97;;;;;;;;;;5054840;28;20048;-65
2023/04/06 01:56:46;;;;;;;9.10;5.25;;;;;;;;;;5036831;28;20041;-66
2023/04/06 01:59:12;;;;;;;8.25;5.30;;;;;;;;;;5036663;28;20091;-65
2023/04/06 02:01:38;;;;;;;8.75;4.88;;;;;;;;;;5036375;28;20072;-66
2023/04/06 02:04:05;;;;;;;7.63;4.70;;;;;;;;;;5053542;28;21738;-65
2023/04/06 02:06:31;;;;;;;10.38;5.75;;;;;;;;;;5054590;28;20084;-65
2023/04/06 02:08:57;;;;;;;8.77;4.75;;;;;;;;;;5052800;28;20040;-65
2023/04/06 02:11:23;;;;;;;10.07;5.85;;;;;;;;;;5053500;28;20049;-66
2023/04/06 02:13:49;;;;;;;12.07;5.30;;;;;;;;;;5054883;28;20076;-65
2023/04/06 02:16:15;;;;;;;9.18;5.30;;;;;;;;;;5037614;28;20055;-65
2023/04/06 02:18:41;;;;;;;9.75;5.03;;;;;;;;;;5053751;28;20179;-65
2023/04/06 02:21:08;;;;;;;10.27;5.43;;;;;;;;;;5036895;28;20056;-66
2023/04/06 02:23:34;;;;;;;9.70;5.68;;;;;;;;;;5052984;28;20041;-66
2023/04/06 02:26:00;;;;;;;9.82;5.45;;;;;;;;;;5036272;28;20463;-65
2023/04/06 02:28:26;;;;;;;9.90;5.72;;;;;;;;;;5053578;28;20051;-65
2023/04/06 02:30:52;;;;;;;11.68;6.18;;;;;;;;;;5055300;28;20171;-66
2023/04/06 02:33:18;;;;;;;10.15;5.63;;;;;;;;;;5053507;28;20091;-66
2023/04/06 02:35:45;;;;;;;11.70;5.20;;;;;;;;;;5052120;28;20045;-66
2023/04/06 02:38:12;;;;;;;10.32;6.25;;;;;;;;;;5052467;28;20415;-66
2023/04/06 02:40:38;;;;;;;8.50;4.88;;;;;;;;;;5035880;28;20067;-66
2023/04/06 02:43:04;;;;;;;8.60;5.05;;;;;;;;;;5035552;28;20217;-66
2023/04/06 02:45:30;;;;;;;10.93;5.45;;;;;;;;;;5054408;28;20264;-66
2023/04/06 02:47:56;;;;;;;10.82;5.00;;;;;;;;;;5056049;28;20051;-66
2023/04/06 02:50:22;;;;;;;10.25;5.60;;;;;;;;;;5035457;28;20040;-66
2023/04/06 02:52:48;;;;;;;11.50;5.78;;;;;;;;;;5059953;28;20113;-66
2023/04/06 02:55:15;;;;;;;10.30;6.05;;;;;;;;;;5039559;28;20040;-66
2023/04/06 02:57:41;;;;;;;9.38;5.03;;;;;;;;;;5054513;28;20093;-66
2023/04/06 03:00:07;;;;;;;13.70;6.00;;;;;;;;;;5058046;28;20124;-66
2023/04/06 03:02:33;;;;;;;10.38;5.78;;;;;;;;;;5055019;28;20033;-66
2023/04/06 03:04:59;;;;;;;12.25;6.88;;;;;;;;;;5056547;28;20047;-66
2023/04/06 03:07:26;;;;;;;9.50;5.80;;;;;;;;;;5037238;28;20044;-66
2023/04/06 03:09:52;;;;;;;12.35;5.47;;;;;;;;;;5042800;28;20179;-66
2023/04/06 03:12:18;;;;;;;10.88;5.82;;;;;;;;;;5056850;28;20033;-66
2023/04/06 03:14:44;;;;;;;9.88;6.10;;;;;;;;;;5059019;28;20049;-66
2023/04/06 03:17:11;;;;;;;9.32;5.40;;;;;;;;;;5060627;28;20140;-66
2023/04/06 03:19:37;;;;;;;7.63;5.07;;;;;;;;;;5056008;28;20045;-66
2023/04/06 03:22:03;;;;;;;11.45;5.88;;;;;;;;;;5037378;28;20070;-66
2023/04/06 03:24:29;;;;;;;9.70;5.68;;;;;;;;;;5037903;28;20052;-66
2023/04/06 03:26:56;;;;;;;8.57;5.40;;;;;;;;;;5039612;28;20044;-66
2023/04/06 03:29:22;;;;;;;10.00;5.95;;;;;;;;;;5055797;28;20049;-66
2023/04/06 03:31:48;;;;;;;11.65;5.85;;;;;;;;;;5057912;28;20039;-66
2023/04/06 03:34:14;;;;;;;9.07;5.70;;;;;;;;;;5057327;28;20062;-66
2023/04/06 03:36:41;;;;;;;11.98;5.65;;;;;;;;;;5038730;28;20079;-66
2023/04/06 03:39:07;;;;;;;9.15;5.70;;;;;;;;;;5053908;28;20048;-66
2023/04/06 03:41:33;;;;;;;9.73;6.22;;;;;;;;;;5036800;28;20052;-66
2023/04/06 03:43:59;;;;;;;9.68;5.55;;;;;;;;;;5055314;28;20043;-66
2023/04/06 03:46:25;;;;;;;10.73;5.85;;;;;;;;;;5054561;28;20344;-67
2023/04/06 03:48:51;;;;;;;10.70;5.22;;;;;;;;;;5055101;28;20187;-67
2023/04/06 03:51:18;;;;;;;11.05;6.53;;;;;;;;;;5057247;28;20599;-66
2023/04/06 03:53:44;;;;;;;11.55;6.10;;;;;;;;;;5056434;28;20356;-66
2023/04/06 03:56:10;;;;;;;12.05;6.30;;;;;;;;;;5056921;28;20480;-66
2023/04/06 03:58:36;;;;;;;9.57;5.65;;;;;;;;;;5059919;28;20117;-67
2023/04/06 04:01:02;;;;;;;11.75;6.20;;;;;;;;;;5057451;28;20195;-66
2023/04/06 04:03:28;;;;;;;16.98;7.18;;;;;;;;;;5040853;28;20044;-64
2023/04/06 04:05:55;;;;;;;13.05;6.13;;;;;;;;;;5059155;28;20044;-64
2023/04/06 04:08:21;;;;;;;11.02;6.10;;;;;;;;;;5025878;28;20472;-64
2023/04/06 04:10:47;;;;;;;12.27;6.38;;;;;;;;;;5061272;28;20040;-67
2023/04/06 04:13:14;;;;;;;10.85;6.05;;;;;;;;;;5059592;28;20552;-66
2023/04/06 04:15:40;;;;;;;10.15;5.90;;;;;;;;;;5052962;28;20040;-66
2023/04/06 04:18:06;;;;;;;13.73;6.10;;;;;;;;;;5054898;28;20614;-65
2023/04/06 04:20:32;;;;;;;14.65;6.93;;;;;;;;;;5055236;28;20036;-65
2023/04/06 04:22:58;;;;;;;12.82;7.13;;;;;;;;;;5054192;28;20049;-64
2023/04/06 04:25:24;;;;;;;11.80;6.22;;;;;;;;;;5055507;28;20043;-64
2023/04/06 04:27:51;;;;;;;11.20;7.22;;;;;;;;;;5035495;28;20170;-65
2023/04/06 04:30:17;;;;;;;12.90;7.03;;;;;;;;;;5054339;28;20041;-65
2023/04/06 04:32:43;;;;;;;13.90;6.65;;;;;;;;;;5055632;28;20396;-66
2023/04/06 04:35:09;;;;;;;10.02;6.22;;;;;;;;;;5055005;28;20468;-66
2023/04/06 04:37:36;;;;;;;11.73;6.85;;;;;;;;;;5058762;28;20085;-65
2023/04/06 04:40:02;;;;;;;15.15;7.60;;;;;;;;;;5057663;28;20066;-65
2023/04/06 04:42:28;;;;;;;10.60;7.15;;;;;;;;;;5057299;28;20542;-65
2023/04/06 04:44:54;;;;;;;10.90;7.45;;;;;;;;;;5037602;28;20059;-65
2023/04/06 04:47:21;;;;;;;9.52;5.82;;;;;;;;;;5055861;28;20086;-66
2023/04/06 04:49:47;;;;;;;14.43;7.00;;;;;;;;;;5055562;28;20504;-65
2023/04/06 04:52:13;;;;;;;9.98;6.90;;;;;;;;;;5057422;28;20052;-64
2023/04/06 04:54:40;;;;;;;13.15;7.32;;;;;;;;;;5053470;28;20128;-72
2023/04/06 04:57:07;;;;;;;12.35;6.65;;;;;;;;;;5056668;28;20072;-66
2023/04/06 04:59:33;;;;;;;13.40;7.55;;;;;;;;;;5054539;28;20411;-66
2023/04/06 05:01:59;;;;;;;12.70;7.18;;;;;;;;;;5058837;28;20115;-66
2023/04/06 05:04:26;;;;;;;10.98;7.10;;;;;;;;;;5039413;28;20032;-66
2023/04/06 05:07:02;;;;;;;9.93;6.70;;;;;;;;;;5058650;28;20102;-66
2023/04/06 05:09:31;;;;;;;10.63;6.90;;;;;;;;;;5041843;28;20190;-66
2023/04/06 05:11:57;;;;;;;12.85;7.10;;;;;;;;;;5039176;28;20492;-74
2023/04/06 05:14:23;;;;;;;16.00;7.82;;;;;;;;;;5042537;28;20056;-66
2023/04/06 05:16:50;;;;;;;14.70;7.90;;;;;;;;;;5041943;28;20424;-66
2023/04/06 05:19:16;;;;;;;14.73;7.40;;;;;;;;;;5036164;28;20064;-66
2023/04/06 05:21:42;;;;;;;14.10;7.32;;;;;;;;;;5052495;28;20166;-66
2023/04/06 05:24:08;;;;;;;11.27;7.63;;;;;;;;;;5031041;28;20084;-66
2023/04/06 05:26:34;;;;;;;13.65;8.13;;;;;;;;;;5051402;28;20041;-65
2023/04/06 05:29:01;;;;;;;12.15;7.40;;;;;;;;;;5053316;28;20126;-66
2023/04/06 05:31:27;;;;;;;14.68;8.10;;;;;;;;;;5049406;28;20500;-65
2023/04/06 05:33:53;;;;;;;12.15;8.63;;;;;;;;;;5052807;28;20400;-66
2023/04/06 05:36:20;;;;;;;11.07;7.70;;;;;;;;;;5052404;28;20087;-66
2023/04/06 05:38:46;;;;;;;16.25;8.48;;;;;;;;;;5054144;28;20056;-65
2023/04/06 05:41:12;;;;;;;14.98;8.45;;;;;;;;;;5054988;28;20060;-65
2023/04/06 05:43:38;;;;;;;14.15;8.65;;;;;;;;;;5053312;28;20413;-65
2023/04/06 05:46:04;;;;;;;16.48;8.10;;;;;;;;;;5039027;28;20502;-65
2023/04/06 05:48:30;;;;;;;14.25;8.40;;;;;;;;;;5057580;28;20084;-65
2023/04/06 05:50:57;;;;;;;16.55;9.25;;;;;;;;;;5060782;28;20057;-65
2023/04/06 05:53:25;;;;;;;14.50;8.60;;;;;;;;;;5037787;28;20066;-65
2023/04/06 05:55:52;;;;;;;14.75;8.63;;;;;;;;;;5054276;28;20044;-65
2023/04/06 05:58:18;;;;;;;12.07;8.32;;;;;;;;;;5053226;28;20056;-65
2023/04/06 06:00:45;;;;;;;13.02;8.90;;;;;;;;;;5053637;28;20095;-65
2023/04/06 06:03:12;;;;;;;11.57;7.93;;;;;;;;;;5058820;28;20484;-64
2023/04/06 06:05:38;;;;;;;12.85;8.15;;;;;;;;;;5053398;28;20128;-64
2023/04/06 06:08:04;;;;;;;13.65;8.88;;;;;;;;;;5055763;28;20040;-65
2023/04/06 06:10:30;;;;;;;18.27;8.48;;;;;;;;;;5056220;28;20044;-65
2023/04/06 06:12:57;;;;;;;13.25;8.10;;;;;;;;;;5038362;28;20507;-65
2023/04/06 06:15:23;;;;;;;14.20;8.80;;;;;;;;;;5057464;28;20059;-65
2023/04/06 06:17:49;;;;;;;18.00;8.57;;;;;;;;;;5055169;28;20071;-66
2023/04/06 06:20:15;;;;;;;15.82;8.20;;;;;;;;;;5053710;28;20456;-66
2023/04/06 06:22:42;;;;;;;12.82;7.93;;;;;;;;;;5054193;28;20075;-67
2023/04/06 06:25:08;;;;;;;13.02;8.30;;;;;;;;;;5039204;28;20051;-66
2023/04/06 06:27:34;;;;;;;15.02;9.15;;;;;;;;;;5058502;28;20058;-66
2023/04/06 06:30:00;;;;;;;16.10;8.90;;;;;;;;;;5059119;28;20037;-66
2023/04/06 06:32:26;;;;;;;15.77;8.05;;;;;;;;;;5060844;28;20044;-66
2023/04/06 06:34:53;;;;;;;13.88;8.23;;;;;;;;;;5056957;28;21153;-66
2023/04/06 06:37:19;;;;;;;14.35;8.82;;;;;;;;;;5057407;28;20049;-66
2023/04/06 06:39:45;;;;;;;14.82;8.98;;;;;;;;;;5060991;28;20032;-66
2023/04/06 06:42:11;;;;;;;14.75;8.65;;;;;;;;;;5058897;28;20063;-66
2023/04/06 06:44:37;;;;;;;14.05;8.68;;;;;;;;;;5059200;28;20037;-67
2023/04/06 06:47:03;;;;;;;12.75;8.23;;;;;;;;;;5044195;28;20087;-66
2023/04/06 06:49:30;;;;;;;15.30;9.50;;;;;;;;;;5058770;28;20416;-66
2023/04/06 06:51:56;;;;;;;15.57;9.43;;;;;;;;;;5057618;28;20037;-66
2023/04/06 06:54:22;;;;;;;15.43;9.20;;;;;;;;;;5059011;28;20965;-66
2023/04/06 06:56:48;;;;;;;14.93;8.55;;;;;;;;;;5057753;28;20037;-66
2023/04/06 06:59:15;;;;;;;13.23;8.40;;;;;;;;;;5058919;28;20128;-66
2023/04/06 07:01:42;;;;;;;14.50;8.60;;;;;;;;;;5060896;28;20126;-66
2023/04/06 07:04:08;;;;;;;15.95;8.27;;;;;;;;;;5059141;28;20441;-66
2023/04/06 07:06:36;;;;;;;17.73;8.13;;;;;;;;;;5059052;28;20040;-66
2023/04/06 07:09:04;;;;;;;15.05;9.43;;;;;;;;;;5057290;28;20059;-66
2023/04/06 07:11:30;;;;;;;14.63;9.35;;;;;;;;;;5056256;28;20041;-66
2023/04/06 07:13:56;;;;;;;15.23;9.20;;;;;;;;;;5055102;28;20249;-66
2023/04/06 07:16:22;;;;;;;16.63;10.02;;;;;;;;;;5038803;28;20127;-66
2023/04/06 07:18:48;;;;;;;15.43;8.73;;;;;;;;;;5059538;28;20053;-66
2023/04/06 07:21:15;;;;;;;15.18;8.70;;;;;;;;;;5058753;28;20052;-66
2023/04/06 07:23:41;;;;;;;16.58;9.18;;;;;;;;;;5055848;28;20076;-66
2023/04/06 07:26:07;;;;;;;17.02;8.93;;;;;;;;;;5042319;28;20188;-66
2023/04/06 07:28:33;;;;;;;14.25;8.82;;;;;;;;;;5053986;28;20079;-67
2023/04/06 07:30:59;;;;;;;15.85;8.10;;;;;;;;;;5053999;28;20098;-67
2023/04/06 07:33:29;;;;;;;13.38;7.53;;;;;;;;;;5057125;28;20053;-66
2023/04/06 07:35:57;;;;;;;15.65;8.98;;;;;;;;;;5058279;28;20102;-66
2023/04/06 07:38:23;;;;;;;14.35;8.65;;;;;;;;;;5057334;28;20051;-66
2023/04/06 07:40:49;;;;;;;14.45;8.23;;;;;;;;;;5058157;28;21317;-66
2023/04/06 07:43:16;;;;;;;18.48;9.13;;;;;;;;;;5051346;28;20044;-66
2023/04/06 07:45:42;;;;;;;15.13;8.65;;;;;;;;;;5055876;28;20044;-66
2023/04/06 07:48:08;;;;;;;19.30;9.57;;;;;;;;;;5058504;28;20076;-66
2023/04/06 07:50:35;;;;;;;16.60;9.50;;;;;;;;;;5058080;28;20041;-66
2023/04/06 07:53:01;;;;;;;16.52;8.07;;;;;;;;;;5060652;28;20571;-66
2023/04/06 07:55:27;;;;;;;14.52;7.53;;;;;;;;;;5058570;28;20044;-66
2023/04/06 07:57:53;;;;;;;15.00;9.18;;;;;;;;;;5057115;28;20040;-67
2023/04/06 08:00:19;;;;;;;13.55;8.55;;;;;;;;;;5053513;28;20090;-67
2023/04/06 08:02:46;;;;;;;16.55;8.65;;;;;;;;;;5059553;28;20135;-66
2023/04/06 08:05:12;;;;;;;14.95;8.15;;;;;;;;;;5061799;28;20040;-66
2023/04/06 08:07:38;;;;;;;13.55;8.10;;;;;;;;;;5055910;28;20056;-67
2023/04/06 08:10:05;;;;;;;15.20;9.15;;;;;;;;;;5060524;28;20052;-67
2023/04/06 08:12:32;;;;;;;17.02;8.40;;;;;;;;;;5057743;28;20085;-67
2023/04/06 08:14:59;;;;;;;14.80;9.32;;;;;;;;;;5034760;28;20052;-66
2023/04/06 08:17:27;;;;;;;13.30;8.70;;;;;;;;;;5019594;28;1115914;-66
2023/04/06 08:19:53;;;;;;;15.85;8.60;;;;;;;;;;5061272;28;20469;-66
2023/04/06 08:22:19;;;;;;;14.95;9.18;;;;;;;;;;5055831;28;20040;-66
2023/04/06 08:24:45;;;;;;;15.38;8.35;;;;;;;;;;5038298;28;20056;-66
2023/04/06 08:27:13;;;;;;;16.65;8.98;;;;;;;;;;5059371;28;20051;-66
2023/04/06 08:29:39;;;;;;;12.48;8.55;;;;;;;;;;5057905;28;20492;-67
2023/04/06 08:32:06;;;;;;;14.77;9.68;;;;;;;;;;5056726;28;20655;-66
2023/04/06 08:34:33;;;;;;;14.00;9.40;;;;;;;;;;5055406;28;20066;-66
2023/04/06 08:36:59;;;;;;;15.07;8.35;;;;;;;;;;5040094;28;20051;-66
2023/04/06 08:39:27;;;;;;;15.90;8.18;;;;;;;;;;5057674;28;20051;-66
2023/04/06 08:41:56;;;;;;;18.23;9.07;;;;;;;;;;5059063;28;20040;-68
2023/04/06 08:44:23;;;;;;;13.73;8.50;;;;;;;;;;5059816;28;20049;-68
2023/04/06 08:46:50;;;;;;;16.75;9.80;;;;;;;;;;5061563;28;20052;-68
2023/04/06 08:49:16;;;;;;;15.93;9.45;;;;;;;;;;5059894;28;20113;-68
2023/04/06 08:51:43;;;;;;;15.35;9.57;;;;;;;;;;5044461;28;20048;-69
2023/04/06 08:54:10;;;;;;;17.40;9.38;;;;;;;;;;5052856;28;20152;-69
2023/04/06 08:56:38;;;;;;;20.13;9.30;;;;;;;;;;5035732;28;21695;-68
2023/04/06 08:59:05;;;;;;;18.08;10.00;;;;;;;;;;5059702;28;20040;-68
2023/04/06 09:01:32;;;;;;;18.17;10.40;;;;;;;;;;5060445;28;20129;-68
2023/04/06 09:04:00;;;;;;;18.90;11.55;;;;;;;;;;5055252;28;20037;-69
2023/04/06 09:06:27;;;;;;;18.73;11.13;;;;;;;;;;5058481;28;20067;-66
2023/04/06 09:08:54;;;;;;;19.77;11.13;;;;;;;;;;5055934;28;20488;-68
2023/04/06 09:11:21;;;;;;;19.90;11.77;;;;;;;;;;5054936;28;20049;-67
2023/04/06 09:13:48;;;;;;;30.90;12.35;;;;;;;;;;5056437;28;20047;-68
2023/04/06 09:16:15;;;;;;;19.80;12.15;;;;;;;;;;5041671;28;20086;-68
2023/04/06 09:18:41;;;;;;;22.13;11.75;;;;;;;;;;5059005;28;20059;-68
2023/04/06 09:21:07;;;;;;;19.20;11.98;;;;;;;;;;5062652;28;20460;-68
2023/04/06 09:23:34;;;;;;;22.00;11.50;;;;;;;;;;5059889;28;20496;-68
2023/04/06 09:26:05;;;;;;;22.92;13.90;;;;;;;;;;5061350;28;20181;-68
2023/04/06 09:28:41;;;;;;;25.40;13.63;;;;;;;;;;5063329;28;20121;-68
2023/04/06 09:31:09;;;;;;;23.33;12.65;;;;;;;;;;5060601;28;20477;-68
2023/04/06 09:33:38;;;;;;;22.42;13.32;;;;;;;;;;5062730;28;20079;-68
2023/04/06 09:36:04;;;;;;;20.83;13.15;;;;;;;;;;5064519;28;20052;-68
2023/04/06 09:38:30;;;;;;;22.67;13.07;;;;;;;;;;5055641;28;20469;-68
2023/04/06 09:40:56;;;;;;;22.67;12.57;;;;;;;;;;5058727;28;20044;-68
2023/04/06 09:43:28;;;;;;;22.17;13.30;;;;;;;;;;5058676;28;20197;-68
2023/04/06 09:45:56;;;;;;;20.27;13.18;;;;;;;;;;5061277;28;20117;-68
2023/04/06 09:48:22;;;;;;;18.98;13.35;;;;;;;;;;5044504;28;20045;-68
2023/04/06 09:50:50;;;;;;;22.10;13.75;;;;;;;;;;5063216;28;20093;-69
2023/04/06 09:53:19;;;;;;;22.13;14.50;;;;;;;;;;5041256;28;20560;-68
2023/04/06 09:55:49;;;;;;;22.25;13.52;;;;;;;;;;5043034;28;20150;-68
2023/04/06 09:58:19;;;;;;;27.75;13.35;;;;;;;;;;5059913;28;20037;-68
2023/04/06 10:00:48;;;;;;;22.88;13.15;;;;;;;;;;5042559;28;20053;-69
2023/04/06 10:03:14;;;;;;;20.17;13.43;;;;;;;;;;5060447;28;20043;-68
2023/04/06 10:05:40;;;;;;;20.75;14.15;;;;;;;;;;5046000;28;20136;-68
2023/04/06 10:08:08;;;;;;;22.30;13.88;;;;;;;;;;5042667;28;20056;-69
2023/04/06 10:10:35;;;;;;;22.40;13.65;;;;;;;;;;5060746;28;21522;-68
2023/04/06 10:13:01;;;;;;;49.15;29.30;;;;;;;;;;5060624;28;20115;-69
2023/04/06 10:15:29;;;;;;;23.30;14.20;;;;;;;;;;5062929;28;20037;-68
2023/04/06 10:17:56;;;;;;;30.17;21.67;;;;;;;;;;5059710;28;20056;-68
2023/04/06 10:20:24;;;;;;;23.52;14.52;;;;;;;;;;5059617;28;20044;-68
2023/04/06 10:22:56;;;;;;;20.50;13.20;;;;;;;;;;5057252;28;20576;-68
2023/04/06 10:25:28;;;;;;;38.67;25.33;;;;;;;;;;5040057;28;20440;-68
2023/04/06 10:28:02;;;;;;;25.55;14.30;;;;;;;;;;5054482;28;20056;-68
2023/04/06 10:30:29;;;;;;;24.73;13.75;;;;;;;;;;5035057;28;20067;-68
2023/04/06 10:32:55;;;;;;;28.05;15.90;;;;;;;;;;5057546;28;20052;-68
2023/04/06 10:35:21;;;;;;;25.00;16.88;;;;;;;;;;5054386;28;20041;-68
2023/04/06 10:37:51;;;;;;;22.08;14.75;;;;;;;;;;5055714;28;20432;-69
2023/04/06 10:40:19;;;;;;;23.80;15.82;;;;;;;;;;5058712;28;20492;-67
2023/04/06 10:42:46;;;;;;;28.60;16.27;;;;;;;;;;5036312;28;20143;-67
2023/04/06 10:45:20;;;;;;;23.25;14.63;;;;;;;;;;5038621;28;20116;-67
2023/04/06 10:47:47;;;;;;;24.92;16.27;;;;;;;;;;5059217;28;20043;-69
2023/04/06 10:50:16;;;;;;;22.05;15.43;;;;;;;;;;5057629;28;20403;-69
2023/04/06 10:52:42;;;;;;;22.98;15.85;;;;;;;;;;5059819;28;20040;-68
2023/04/06 10:55:10;;;;;;;26.40;16.10;;;;;;;;;;5057315;28;20102;-68
2023/04/06 10:57:36;;;;;;;25.63;16.10;;;;;;;;;;5058514;28;20451;-68
2023/04/06 11:00:05;;;;;;;25.85;16.63;;;;;;;;;;5038102;28;20052;-68
2023/04/06 11:02:31;;;;;;;27.00;16.65;;;;;;;;;;5055147;28;20066;-68
2023/04/06 11:04:58;;;;;;;30.10;16.20;;;;;;;;;;5055554;28;20036;-67
2023/04/06 11:07:29;;;;;;;26.23;16.45;;;;;;;;;;5037635;28;20128;-68
2023/04/06 11:09:56;;;;;;;29.95;17.33;;;;;;;;;;5059905;28;20047;-67
2023/04/06 11:12:25;;;;;;;24.98;17.67;;;;;;;;;;5058525;28;20090;-67
2023/04/06 11:14:53;;;;;;;30.52;17.52;;;;;;;;;;5055008;28;20053;-67
2023/04/06 11:17:26;;;;;;;24.58;17.63;;;;;;;;;;5054473;28;20041;-67
2023/04/06 11:19:52;;;;;;;28.42;17.67;;;;;;;;;;5038377;28;20060;-66
2023/04/06 11:22:18;;;;;;;30.02;19.00;;;;;;;;;;5036944;28;20243;-68
2023/04/06 11:24:44;;;;;;;31.23;19.13;;;;;;;;;;5020099;28;20473;-67
2023/04/06 11:27:11;;;;;;;31.98;19.27;;;;;;;;;;5039153;28;20040;-67
2023/04/06 11:29:38;;;;;;;27.20;17.83;;;;;;;;;;5040496;28;20045;-67
2023/04/06 11:32:05;;;;;;;28.15;18.70;;;;;;;;;;5038168;28;20049;-67
2023/04/06 11:34:33;;;;;;;31.33;18.58;;;;;;;;;;5036277;28;20500;-67
2023/04/06 11:37:00;;;;;;;27.52;17.35;;;;;;;;;;5037314;28;20041;-67
2023/04/06 11:39:27;;;;;;;28.13;18.73;;;;;;;;;;5037664;28;20049;-66
2023/04/06 11:41:54;;;;;;;29.50;18.15;;;;;;;;;;5038552;28;20045;-66
2023/04/06 11:44:39;;;;;;;32.38;18.85;;;;;;;;;;5021138;28;20049;-67
2023/04/06 11:47:06;;;;;;;29.58;18.08;;;;;;;;;;5038362;28;20648;-67
2023/04/06 11:49:33;;;;;;;30.48;18.77;;;;;;;;;;5021243;28;20076;-67
2023/04/06 11:52:00;;;;;;;30.85;18.20;;;;;;;;;;5037226;28;20034;-67
2023/04/06 11:54:32;;;;;;;27.13;17.17;;;;;;;;;;5038561;28;20038;-67
2023/04/06 11:56:58;;;;;;;25.58;17.30;;;;;;;;;;5039952;28;20230;-67
2023/04/06 11:59:25;;;;;;;29.17;18.35;;;;;;;;;;5036997;28;20171;-67
2023/04/06 12:01:53;;;;;;;30.45;19.00;;;;;;;;;;5038212;28;20048;-67
2023/04/06 12:04:19;;;;;;;30.60;17.52;;;;;;;;;;5039549;28;20834;-67
2023/04/06 12:06:45;;;;;;;27.63;17.40;;;;;;;;;;5037401;28;20550;-67
2023/04/06 12:09:11;;;;;;;26.40;17.83;;;;;;;;;;5022970;28;20126;-68
2023/04/06 12:11:38;;;;;;;29.80;17.95;;;;;;;;;;5035653;28;20104;-67
2023/04/06 12:14:05;;;;;;;32.63;17.98;;;;;;;;;;5038360;28;20049;-68
2023/04/06 12:16:31;;;;;;;25.95;17.33;;;;;;;;;;5037285;28;20045;-68
2023/04/06 12:18:57;;;;;;;28.40;18.30;;;;;;;;;;5034657;28;20047;-67
2023/04/06 12:21:24;;;;;;;27.75;18.10;;;;;;;;;;5053933;28;20053;-68
2023/04/06 12:23:50;;;;;;;27.48;16.85;;;;;;;;;;5020231;28;20583;-68
2023/04/06 12:26:16;;;;;;;27.38;18.60;;;;;;;;;;5052082;28;20049;-68
2023/04/06 12:28:44;;;;;;;24.30;16.33;;;;;;;;;;5053559;28;20110;-68
2023/04/06 12:31:15;;;;;;;26.35;16.70;;;;;;;;;;5054296;28;20045;-67
2023/04/06 12:33:41;;;;;;;24.08;16.80;;;;;;;;;;5058033;28;20098;-67
2023/04/06 12:36:13;;;;;;;25.13;16.98;;;;;;;;;;5057168;28;20096;-68
2023/04/06 12:38:41;;;;;;;24.95;16.13;;;;;;;;;;5053845;28;20136;-68
2023/04/06 12:41:07;;;;;;;21.95;16.80;;;;;;;;;;5053482;28;20048;-68
2023/04/06 12:43:33;;;;;;;23.33;17.73;;;;;;;;;;5056524;28;20075;-68
2023/04/06 12:45:59;;;;;;;24.20;16.58;;;;;;;;;;5053266;28;20361;-68
2023/04/06 12:48:27;;;;;;;33.97;18.23;;;;;;;;;;5056652;28;20044;-68
2023/04/06 12:50:55;;;;;;;24.52;15.88;;;;;;;;;;5053760;28;20048;-66
2023/04/06 12:53:21;;;;;;;23.13;15.68;;;;;;;;;;5039224;28;20080;-67
2023/04/06 12:55:47;;;;;;;23.08;13.95;;;;;;;;;;5055364;28;20048;-67
2023/04/06 12:58:13;;;;;;;21.38;14.27;;;;;;;;;;5055706;28;20045;-67
2023/04/06 13:00:40;;;;;;;22.20;14.85;;;;;;;;;;5056411;28;20047;-66
2023/04/06 13:03:06;;;;;;;23.55;13.68;;;;;;;;;;5055291;28;20079;-67
2023/04/06 13:05:32;;;;;;;17.48;11.18;;;;;;;;;;5056263;28;20094;-68
2023/04/06 13:07:58;;;;;;;18.48;11.50;;;;;;;;;;5056312;28;20088;-67
2023/04/06 13:10:25;;;;;;;18.80;10.88;;;;;;;;;;5042345;28;20048;-67
2023/04/06 13:12:51;;;;;;;19.67;12.25;;;;;;;;;;5059734;28;20080;-68
2023/04/06 13:15:17;;;;;;;24.13;13.85;;;;;;;;;;5058820;28;20037;-67
2023/04/06 13:17:44;;;;;;;20.70;13.57;;;;;;;;;;5054508;28;20083;-67
2023/04/06 13:20:10;;;;;;;16.45;11.88;;;;;;;;;;5034841;28;20068;-68
2023/04/06 13:22:36;;;;;;;19.73;11.80;;;;;;;;;;5057615;28;20045;-68
2023/04/06 13:25:02;;;;;;;20.55;13.43;;;;;;;;;;5054373;28;20489;-68
2023/04/06 13:27:29;;;;;;;20.45;12.93;;;;;;;;;;5053256;28;20041;-68
2023/04/06 13:29:56;;;;;;;17.70;12.05;;;;;;;;;;5055347;28;21572;-67
2023/04/06 13:32:22;;;;;;;20.92;12.88;;;;;;;;;;5055628;28;20440;-67
2023/04/06 13:34:48;;;;;;;20.92;12.43;;;;;;;;;;5057909;28;20045;-68
2023/04/06 13:37:16;;;;;;;17.40;11.25;;;;;;;;;;5035720;28;20044;-68
2023/04/06 13:39:42;;;;;;;17.23;11.45;;;;;;;;;;5037885;28;20055;-67
2023/04/06 13:42:09;;;;;;;16.63;11.27;;;;;;;;;;5056522;28;20076;-68
2023/04/06 13:44:35;;;;;;;22.30;14.77;;;;;;;;;;5053740;28;20061;-67
2023/04/06 13:47:02;;;;;;;19.98;13.52;;;;;;;;;;5056116;28;20056;-68
2023/04/06 13:49:28;;;;;;;24.02;15.13;;;;;;;;;;5055480;28;20048;-68
2023/04/06 13:51:54;;;;;;;25.50;14.95;;;;;;;;;;5036450;28;20097;-67
2023/04/06 13:54:20;;;;;;;23.60;15.98;;;;;;;;;;5037058;28;20150;-77
2023/04/06 13:56:46;;;;;;;26.63;17.27;;;;;;;;;;5052338;28;20044;-68
2023/04/06 13:59:13;;;;;;;25.05;17.10;;;;;;;;;;5055453;28;20048;-67
2023/04/06 14:01:39;;;;;;;25.20;16.90;;;;;;;;;;5056155;28;20041;-68
2023/04/06 14:04:05;;;;;;;28.77;17.55;;;;;;;;;;5063423;28;20127;-68
2023/04/06 14:06:31;;;;;;;26.60;17.35;;;;;;;;;;5057888;28;20052;-68
2023/04/06 14:08:58;;;;;;;26.13;16.65;;;;;;;;;;5062359;28;20051;-68
2023/04/06 14:11:24;;;;;;;27.00;17.48;;;;;;;;;;5053666;28;20097;-68
2023/04/06 14:13:50;;;;;;;27.95;18.48;;;;;;;;;;5061124;28;20414;-69
2023/04/06 14:16:19;;;;;;;28.73;18.10;;;;;;;;;;5054096;28;20098;-68
2023/04/06 14:18:45;;;;;;;26.70;17.60;;;;;;;;;;5060574;28;20045;-67
2023/04/06 14:21:11;;;;;;;31.30;19.15;;;;;;;;;;5059516;28;20053;-67
2023/04/06 14:23:38;;;;;;;28.30;17.55;;;;;;;;;;5059934;28;20043;-67